sensor_id;sensor_type;location;lat;lon;timestamp;temperature;humidity
19449;DHT22;9863;49.404;8.246;2023-03-19T00:00:45;8.80;99.90
19449;DHT22;9863;49.404;8.246;2023-03-19T00:03:12;9.00;99.90
19449;DHT22;9863;49.404;8.246;2023-03-19T00:05:39;9.00;99.90
19449;DHT22;9863;49.404;8.246;2023-03-19T00:08:06;9.00;99.90
19449;DHT22;9863;49.404;8.246;2023-03-19T00:10:37;8.90;99.90
19449;DHT22;9863;49.404;8.246;2023-03-19T00:13:05;8.90;99.90
19449;DHT22;9863;49.404;8.246;2023-03-19T00:15:32;8.80;99.90
19449;DHT22;9863;49.404;8.246;2023-03-19T00:18:00;8.60;99.90
19449;DHT22;9863;49.404;8.246;2023-03-19T00:20:27;9.30;99.90
19449;DHT22;9863;49.404;8.246;2023-03-19T00:22:54;8.50;99.90
19449;DHT22;9863;49.404;8.246;2023-03-19T00:25:22;8.30;99.90
19449;DHT22;9863;49.404;8.246;2023-03-19T00:27:49;8.20;99.90
19449;DHT22;9863;49.404;8.246;2023-03-19T00:30:16;8.20;99.90
19449;DHT22;9863;49.404;8.246;2023-03-19T00:32:46;8.30;99.90
19449;DHT22;9863;49.404;8.246;2023-03-19T00:35:14;8.20;99.90
19449;DHT22;9863;49.404;8.246;2023-03-19T00:37:41;8.30;99.90
19449;DHT22;9863;49.404;8.246;2023-03-19T00:40:09;8.30;99.90
19449;DHT22;9863;49.404;8.246;2023-03-19T00:42:37;8.50;99.90
19449;DHT22;9863;49.404;8.246;2023-03-19T00:45:04;8.40;99.90
19449;DHT22;9863;49.404;8.246;2023-03-19T00:47:32;8.50;99.90
19449;DHT22;9863;49.404;8.246;2023-03-19T00:49:59;8.60;99.90
19449;DHT22;9863;49.404;8.246;2023-03-19T00:52:26;8.70;99.90
19449;DHT22;9863;49.404;8.246;2023-03-19T00:54:53;8.70;99.90
19449;DHT22;9863;49.404;8.246;2023-03-19T00:57:20;8.60;99.90
19449;DHT22;9863;49.404;8.246;2023-03-19T00:59:47;8.60;99.90
19449;DHT22;9863;49.404;8.246;2023-03-19T01:02:15;8.70;99.90
19449;DHT22;9863;49.404;8.246;2023-03-19T01:04:43;8.70;99.90
19449;DHT22;9863;49.404;8.246;2023-03-19T01:07:10;8.70;99.90
19449;DHT22;9863;49.404;8.246;2023-03-19T01:09:38;8.80;99.90
19449;DHT22;9863;49.404;8.246;2023-03-19T01:12:05;8.70;99.90
19449;DHT22;9863;49.404;8.246;2023-03-19T01:14:33;8.70;99.90
19449;DHT22;9863;49.404;8.246;2023-03-19T01:17:00;8.70;99.90
19449;DHT22;9863;49.404;8.246;2023-03-19T01:19:28;8.50;99.90
19449;DHT22;9863;49.404;8.246;2023-03-19T01:26:54;8.40;99.90
19449;DHT22;9863;49.404;8.246;2023-03-19T01:29:21;8.50;99.90
19449;DHT22;9863;49.404;8.246;2023-03-19T01:31:48;8.50;99.90
19449;DHT22;9863;49.404;8.246;2023-03-19T01:34:15;8.40;99.90
19449;DHT22;9863;49.404;8.246;2023-03-19T01:36:42;8.50;99.90
19449;DHT22;9863;49.404;8.246;2023-03-19T01:39:09;8.50;99.90
19449;DHT22;9863;49.404;8.246;2023-03-19T01:41:37;8.40;99.90
19449;DHT22;9863;49.404;8.246;2023-03-19T01:44:29;8.30;99.90
19449;DHT22;9863;49.404;8.246;2023-03-19T01:47:02;8.30;99.90
19449;DHT22;9863;49.404;8.246;2023-03-19T01:49:32;8.30;99.90
19449;DHT22;9863;49.404;8.246;2023-03-19T01:52:02;8.20;99.90
19449;DHT22;9863;49.404;8.246;2023-03-19T01:54:31;8.30;99.90
19449;DHT22;9863;49.404;8.246;2023-03-19T01:57:02;8.30;99.90
19449;DHT22;9863;49.404;8.246;2023-03-19T01:59:44;8.10;99.90
19449;DHT22;9863;49.404;8.246;2023-03-19T02:02:25;8.10;99.90
19449;DHT22;9863;49.404;8.246;2023-03-19T02:05:00;8.10;99.90
19449;DHT22;9863;49.404;8.246;2023-03-19T02:07:31;8.10;99.90
19449;DHT22;9863;49.404;8.246;2023-03-19T02:10:03;8.10;99.90
19449;DHT22;9863;49.404;8.246;2023-03-19T02:12:33;8.40;99.90
19449;DHT22;9863;49.404;8.246;2023-03-19T02:15:00;8.50;99.90
19449;DHT22;9863;49.404;8.246;2023-03-19T02:17:28;8.60;99.90
19449;DHT22;9863;49.404;8.246;2023-03-19T02:20:17;8.50;99.90
19449;DHT22;9863;49.404;8.246;2023-03-19T02:28:14;8.60;99.90
19449;DHT22;9863;49.404;8.246;2023-03-19T02:30:43;8.60;99.90
19449;DHT22;9863;49.404;8.246;2023-03-19T02:33:16;8.60;99.90
19449;DHT22;9863;49.404;8.246;2023-03-19T02:35:46;8.60;99.90
19449;DHT22;9863;49.404;8.246;2023-03-19T02:38:15;8.60;99.90
19449;DHT22;9863;49.404;8.246;2023-03-19T02:40:57;8.60;99.90
19449;DHT22;9863;49.404;8.246;2023-03-19T02:43:27;8.60;99.90
19449;DHT22;9863;49.404;8.246;2023-03-19T02:45:55;8.60;99.90
19449;DHT22;9863;49.404;8.246;2023-03-19T02:48:23;8.70;99.90
19449;DHT22;9863;49.404;8.246;2023-03-19T02:50:50;8.70;99.90
19449;DHT22;9863;49.404;8.246;2023-03-19T02:53:17;8.80;99.90
19449;DHT22;9863;49.404;8.246;2023-03-19T02:55:45;8.80;99.90
19449;DHT22;9863;49.404;8.246;2023-03-19T02:58:12;8.90;99.90
19449;DHT22;9863;49.404;8.246;2023-03-19T03:00:40;8.80;99.90
19449;DHT22;9863;49.404;8.246;2023-03-19T03:03:08;9.00;99.90
19449;DHT22;9863;49.404;8.246;2023-03-19T03:05:35;9.00;99.90
19449;DHT22;9863;49.404;8.246;2023-03-19T03:08:03;9.10;99.90
19449;DHT22;9863;49.404;8.246;2023-03-19T03:10:31;9.10;99.90
19449;DHT22;9863;49.404;8.246;2023-03-19T03:12:59;9.00;99.90
19449;DHT22;9863;49.404;8.246;2023-03-19T03:15:27;9.10;99.90
19449;DHT22;9863;49.404;8.246;2023-03-19T03:17:54;9.10;99.90
19449;DHT22;9863;49.404;8.246;2023-03-19T03:20:22;9.00;99.90
19449;DHT22;9863;49.404;8.246;2023-03-19T03:22:50;9.00;99.90
19449;DHT22;9863;49.404;8.246;2023-03-19T03:25:17;9.00;99.90
19449;DHT22;9863;49.404;8.246;2023-03-19T03:27:44;8.90;99.90
19449;DHT22;9863;49.404;8.246;2023-03-19T03:30:12;8.90;99.90
19449;DHT22;9863;49.404;8.246;2023-03-19T03:32:39;8.80;99.90
19449;DHT22;9863;49.404;8.246;2023-03-19T03:35:07;8.70;99.90
19449;DHT22;9863;49.404;8.246;2023-03-19T03:37:35;8.70;99.90
19449;DHT22;9863;49.404;8.246;2023-03-19T03:40:05;8.80;99.90
19449;DHT22;9863;49.404;8.246;2023-03-19T03:42:35;8.70;99.90
19449;DHT22;9863;49.404;8.246;2023-03-19T03:47:30;8.80;99.90
19449;DHT22;9863;49.404;8.246;2023-03-19T03:49:57;8.80;99.90
19449;DHT22;9863;49.404;8.246;2023-03-19T03:52:25;8.80;99.90
19449;DHT22;9863;49.404;8.246;2023-03-19T03:54:57;8.80;99.90
19449;DHT22;9863;49.404;8.246;2023-03-19T03:57:24;10.70;99.90
19449;DHT22;9863;49.404;8.246;2023-03-19T03:59:52;8.80;99.90
19449;DHT22;9863;49.404;8.246;2023-03-19T04:02:20;8.80;99.90
19449;DHT22;9863;49.404;8.246;2023-03-19T04:04:47;8.80;99.90
19449;DHT22;9863;49.404;8.246;2023-03-19T04:07:14;8.80;99.90
19449;DHT22;9863;49.404;8.246;2023-03-19T04:09:41;8.80;99.90
19449;DHT22;9863;49.404;8.246;2023-03-19T04:12:09;8.80;99.90
19449;DHT22;9863;49.404;8.246;2023-03-19T04:14:36;8.80;99.90
19449;DHT22;9863;49.404;8.246;2023-03-19T04:17:03;8.80;99.90
19449;DHT22;9863;49.404;8.246;2023-03-19T04:19:31;8.80;99.90
19449;DHT22;9863;49.404;8.246;2023-03-19T04:21:58;8.80;99.90
19449;DHT22;9863;49.404;8.246;2023-03-19T04:24:25;8.80;99.90
19449;DHT22;9863;49.404;8.246;2023-03-19T04:26:52;8.80;99.90
19449;DHT22;9863;49.404;8.246;2023-03-19T04:29:19;8.80;99.90
19449;DHT22;9863;49.404;8.246;2023-03-19T04:31:46;8.70;99.90
19449;DHT22;9863;49.404;8.246;2023-03-19T04:34:13;8.80;99.90
19449;DHT22;9863;49.404;8.246;2023-03-19T04:36:40;8.80;99.90
19449;DHT22;9863;49.404;8.246;2023-03-19T04:39:08;8.80;99.90
19449;DHT22;9863;49.404;8.246;2023-03-19T04:41:35;8.80;99.90
19449;DHT22;9863;49.404;8.246;2023-03-19T04:44:03;8.80;99.90
19449;DHT22;9863;49.404;8.246;2023-03-19T04:46:30;8.90;99.90
19449;DHT22;9863;49.404;8.246;2023-03-19T04:48:57;8.90;99.90
19449;DHT22;9863;49.404;8.246;2023-03-19T04:51:25;9.00;99.90
19449;DHT22;9863;49.404;8.246;2023-03-19T04:53:53;9.00;99.90
19449;DHT22;9863;49.404;8.246;2023-03-19T04:56:20;8.90;99.90
19449;DHT22;9863;49.404;8.246;2023-03-19T04:58:47;8.90;99.90
19449;DHT22;9863;49.404;8.246;2023-03-19T05:01:14;9.00;99.90
19449;DHT22;9863;49.404;8.246;2023-03-19T05:03:41;8.90;99.90
19449;DHT22;9863;49.404;8.246;2023-03-19T05:06:08;9.00;99.90
19449;DHT22;9863;49.404;8.246;2023-03-19T05:08:35;9.00;99.90
19449;DHT22;9863;49.404;8.246;2023-03-19T05:11:03;9.10;99.90
19449;DHT22;9863;49.404;8.246;2023-03-19T05:13:30;9.00;99.90
19449;DHT22;9863;49.404;8.246;2023-03-19T05:15:57;8.90;99.90
19449;DHT22;9863;49.404;8.246;2023-03-19T05:18:25;8.80;99.90
19449;DHT22;9863;49.404;8.246;2023-03-19T05:20:52;5.70;99.90
19449;DHT22;9863;49.404;8.246;2023-03-19T05:23:21;8.70;99.90
19449;DHT22;9863;49.404;8.246;2023-03-19T05:25:48;8.70;99.90
19449;DHT22;9863;49.404;8.246;2023-03-19T05:28:16;8.70;99.90
19449;DHT22;9863;49.404;8.246;2023-03-19T05:30:43;8.70;99.90
19449;DHT22;9863;49.404;8.246;2023-03-19T05:33:10;8.70;99.90
19449;DHT22;9863;49.404;8.246;2023-03-19T05:35:38;8.70;99.90
19449;DHT22;9863;49.404;8.246;2023-03-19T05:38:06;8.70;99.90
19449;DHT22;9863;49.404;8.246;2023-03-19T05:40:33;8.60;99.90
19449;DHT22;9863;49.404;8.246;2023-03-19T05:43:01;8.60;99.90
19449;DHT22;9863;49.404;8.246;2023-03-19T05:45:29;8.60;99.90
19449;DHT22;9863;49.404;8.246;2023-03-19T05:47:56;8.60;99.90
19449;DHT22;9863;49.404;8.246;2023-03-19T05:50:23;8.50;99.90
19449;DHT22;9863;49.404;8.246;2023-03-19T05:52:50;8.50;99.90
19449;DHT22;9863;49.404;8.246;2023-03-19T05:55:17;8.50;99.90
19449;DHT22;9863;49.404;8.246;2023-03-19T05:57:44;8.60;99.90
19449;DHT22;9863;49.404;8.246;2023-03-19T06:00:12;8.60;99.90
19449;DHT22;9863;49.404;8.246;2023-03-19T06:02:42;8.60;99.90
19449;DHT22;9863;49.404;8.246;2023-03-19T06:05:10;8.60;99.90
19449;DHT22;9863;49.404;8.246;2023-03-19T06:07:37;8.60;99.90
19449;DHT22;9863;49.404;8.246;2023-03-19T06:10:05;8.60;99.90
19449;DHT22;9863;49.404;8.246;2023-03-19T06:12:32;8.60;99.90
19449;DHT22;9863;49.404;8.246;2023-03-19T06:14:59;8.50;99.90
19449;DHT22;9863;49.404;8.246;2023-03-19T06:17:26;8.50;99.90
19449;DHT22;9863;49.404;8.246;2023-03-19T06:19:53;8.60;99.90
19449;DHT22;9863;49.404;8.246;2023-03-19T06:22:21;8.50;99.90
19449;DHT22;9863;49.404;8.246;2023-03-19T06:24:48;7.40;99.90
19449;DHT22;9863;49.404;8.246;2023-03-19T06:27:15;8.60;99.90
19449;DHT22;9863;49.404;8.246;2023-03-19T06:29:42;8.60;99.90
19449;DHT22;9863;49.404;8.246;2023-03-19T06:32:09;8.60;99.90
19449;DHT22;9863;49.404;8.246;2023-03-19T06:34:36;8.60;99.90
19449;DHT22;9863;49.404;8.246;2023-03-19T06:37:03;8.60;99.90
19449;DHT22;9863;49.404;8.246;2023-03-19T06:39:30;8.70;99.90
19449;DHT22;9863;49.404;8.246;2023-03-19T06:41:58;8.60;99.90
19449;DHT22;9863;49.404;8.246;2023-03-19T06:44:25;8.60;99.90
19449;DHT22;9863;49.404;8.246;2023-03-19T06:46:53;8.60;99.90
19449;DHT22;9863;49.404;8.246;2023-03-19T06:49:20;8.60;99.90
19449;DHT22;9863;49.404;8.246;2023-03-19T06:51:47;8.60;99.90
19449;DHT22;9863;49.404;8.246;2023-03-19T06:54:15;8.60;99.90
19449;DHT22;9863;49.404;8.246;2023-03-19T06:56:42;8.70;99.90
19449;DHT22;9863;49.404;8.246;2023-03-19T06:59:09;8.70;99.90
19449;DHT22;9863;49.404;8.246;2023-03-19T07:01:41;8.70;99.90
19449;DHT22;9863;49.404;8.246;2023-03-19T07:04:09;8.70;99.90
19449;DHT22;9863;49.404;8.246;2023-03-19T07:06:37;8.80;99.90
19449;DHT22;9863;49.404;8.246;2023-03-19T07:09:04;8.80;99.90
19449;DHT22;9863;49.404;8.246;2023-03-19T07:11:31;8.80;99.90
19449;DHT22;9863;49.404;8.246;2023-03-19T07:14:01;8.80;99.90
19449;DHT22;9863;49.404;8.246;2023-03-19T07:16:29;8.80;99.90
19449;DHT22;9863;49.404;8.246;2023-03-19T07:18:56;8.80;99.90
19449;DHT22;9863;49.404;8.246;2023-03-19T07:21:23;8.90;99.90
19449;DHT22;9863;49.404;8.246;2023-03-19T07:23:50;9.00;99.90
19449;DHT22;9863;49.404;8.246;2023-03-19T07:26:17;9.10;99.90
19449;DHT22;9863;49.404;8.246;2023-03-19T07:28:44;9.10;99.90
19449;DHT22;9863;49.404;8.246;2023-03-19T07:31:11;9.20;99.90
19449;DHT22;9863;49.404;8.246;2023-03-19T07:33:39;9.30;99.90
19449;DHT22;9863;49.404;8.246;2023-03-19T07:36:06;9.40;99.90
19449;DHT22;9863;49.404;8.246;2023-03-19T07:38:33;9.70;99.90
19449;DHT22;9863;49.404;8.246;2023-03-19T07:41:01;9.60;99.90
19449;DHT22;9863;49.404;8.246;2023-03-19T07:43:29;9.90;99.90
19449;DHT22;9863;49.404;8.246;2023-03-19T07:45:57;9.90;99.90
19449;DHT22;9863;49.404;8.246;2023-03-19T08:05:40;10.60;99.90
19449;DHT22;9863;49.404;8.246;2023-03-19T08:10:35;10.60;99.90
19449;DHT22;9863;49.404;8.246;2023-03-19T08:13:04;10.60;99.90
19449;DHT22;9863;49.404;8.246;2023-03-19T08:15:31;10.80;99.90
19449;DHT22;9863;49.404;8.246;2023-03-19T08:17:59;10.80;99.90
19449;DHT22;9863;49.404;8.246;2023-03-19T08:20:29;11.10;99.90
19449;DHT22;9863;49.404;8.246;2023-03-19T08:22:57;11.10;99.90
19449;DHT22;9863;49.404;8.246;2023-03-19T08:25:24;11.20;99.90
19449;DHT22;9863;49.404;8.246;2023-03-19T08:27:52;11.40;99.90
19449;DHT22;9863;49.404;8.246;2023-03-19T08:30:20;11.40;99.90
19449;DHT22;9863;49.404;8.246;2023-03-19T08:32:47;11.60;99.90
19449;DHT22;9863;49.404;8.246;2023-03-19T08:35:15;11.80;99.90
19449;DHT22;9863;49.404;8.246;2023-03-19T08:37:44;11.90;99.90
19449;DHT22;9863;49.404;8.246;2023-03-19T08:40:12;11.90;99.90
19449;DHT22;9863;49.404;8.246;2023-03-19T08:42:39;12.00;99.90
19449;DHT22;9863;49.404;8.246;2023-03-19T08:45:12;12.10;99.90
19449;DHT22;9863;49.404;8.246;2023-03-19T08:47:41;12.20;99.90
19449;DHT22;9863;49.404;8.246;2023-03-19T08:50:09;12.20;99.90
19449;DHT22;9863;49.404;8.246;2023-03-19T08:52:37;12.30;99.90
19449;DHT22;9863;49.404;8.246;2023-03-19T08:55:07;12.40;99.90
19449;DHT22;9863;49.404;8.246;2023-03-19T08:57:35;12.60;99.90
19449;DHT22;9863;49.404;8.246;2023-03-19T09:00:03;12.60;99.90
19449;DHT22;9863;49.404;8.246;2023-03-19T09:07:29;12.90;99.90
19449;DHT22;9863;49.404;8.246;2023-03-19T09:09:56;13.20;99.90
19449;DHT22;9863;49.404;8.246;2023-03-19T09:12:27;13.70;99.90
19449;DHT22;9863;49.404;8.246;2023-03-19T09:14:54;13.70;99.90
19449;DHT22;9863;49.404;8.246;2023-03-19T09:17:21;14.20;99.90
19449;DHT22;9863;49.404;8.246;2023-03-19T09:19:49;14.50;99.90
19449;DHT22;9863;49.404;8.246;2023-03-19T09:22:16;14.50;99.90
19449;DHT22;9863;49.404;8.246;2023-03-19T09:24:43;14.80;99.90
19449;DHT22;9863;49.404;8.246;2023-03-19T09:27:10;14.80;99.90
19449;DHT22;9863;49.404;8.246;2023-03-19T09:29:37;15.10;99.90
19449;DHT22;9863;49.404;8.246;2023-03-19T09:32:04;15.10;99.90
19449;DHT22;9863;49.404;8.246;2023-03-19T09:39:27;15.00;99.90
19449;DHT22;9863;49.404;8.246;2023-03-19T09:45:22;15.60;99.90
19449;DHT22;9863;49.404;8.246;2023-03-19T09:47:54;15.70;99.90
19449;DHT22;9863;49.404;8.246;2023-03-19T09:50:24;15.70;99.90
19449;DHT22;9863;49.404;8.246;2023-03-19T09:55:44;15.90;99.90
19449;DHT22;9863;49.404;8.246;2023-03-19T09:58:18;15.90;99.90
19449;DHT22;9863;49.404;8.246;2023-03-19T10:00:49;16.60;99.90
19449;DHT22;9863;49.404;8.246;2023-03-19T10:07:03;18.40;99.90
19449;DHT22;9863;49.404;8.246;2023-03-19T10:12:21;16.00;99.90
19449;DHT22;9863;49.404;8.246;2023-03-19T10:24:00;17.20;99.90
19449;DHT22;9863;49.404;8.246;2023-03-19T10:26:32;17.20;99.90
19449;DHT22;9863;49.404;8.246;2023-03-19T10:29:07;17.50;99.90
19449;DHT22;9863;49.404;8.246;2023-03-19T10:35:51;17.60;99.90
19449;DHT22;9863;49.404;8.246;2023-03-19T10:38:25;17.60;99.90
19449;DHT22;9863;49.404;8.246;2023-03-19T10:43:42;17.30;99.90
19449;DHT22;9863;49.404;8.246;2023-03-19T10:46:13;17.30;99.90
19449;DHT22;9863;49.404;8.246;2023-03-19T10:48:45;17.60;99.90
19449;DHT22;9863;49.404;8.246;2023-03-19T10:51:15;17.60;99.90
19449;DHT22;9863;49.404;8.246;2023-03-19T10:53:46;17.40;99.90
19449;DHT22;9863;49.404;8.246;2023-03-19T10:56:19;17.40;99.90
19449;DHT22;9863;49.404;8.246;2023-03-19T10:59:00;17.40;99.90
19449;DHT22;9863;49.404;8.246;2023-03-19T11:01:37;17.40;99.90
19449;DHT22;9863;49.404;8.246;2023-03-19T11:04:22;17.40;99.90
19449;DHT22;9863;49.404;8.246;2023-03-19T11:07:01;17.50;99.90
19449;DHT22;9863;49.404;8.246;2023-03-19T11:09:31;17.40;99.90
19449;DHT22;9863;49.404;8.246;2023-03-19T11:12:18;17.30;99.90
19449;DHT22;9863;49.404;8.246;2023-03-19T11:14:56;17.00;99.90
19449;DHT22;9863;49.404;8.246;2023-03-19T11:17:47;17.00;99.90
19449;DHT22;9863;49.404;8.246;2023-03-19T11:20:31;16.50;99.90
19449;DHT22;9863;49.404;8.246;2023-03-19T11:23:03;16.70;99.90
19449;DHT22;9863;49.404;8.246;2023-03-19T11:25:40;16.80;99.90
19449;DHT22;9863;49.404;8.246;2023-03-19T11:28:15;16.70;99.90
19449;DHT22;9863;49.404;8.246;2023-03-19T11:52:02;16.30;99.90
19449;DHT22;9863;49.404;8.246;2023-03-19T12:13:06;15.30;99.90
19449;DHT22;9863;49.404;8.246;2023-03-19T12:19:16;15.30;99.90
19449;DHT22;9863;49.404;8.246;2023-03-19T12:22:03;15.30;99.90
19449;DHT22;9863;49.404;8.246;2023-03-19T12:27:46;15.40;99.90
19449;DHT22;9863;49.404;8.246;2023-03-19T12:30:38;15.30;99.90
19449;DHT22;9863;49.404;8.246;2023-03-19T12:36:50;15.10;99.90
19449;DHT22;9863;49.404;8.246;2023-03-19T12:39:27;15.00;99.90
19449;DHT22;9863;49.404;8.246;2023-03-19T12:41:58;15.00;99.90
19449;DHT22;9863;49.404;8.246;2023-03-19T12:44:39;14.90;99.90
19449;DHT22;9863;49.404;8.246;2023-03-19T12:47:16;14.90;99.90
19449;DHT22;9863;49.404;8.246;2023-03-19T12:50:02;14.70;99.90
19449;DHT22;9863;49.404;8.246;2023-03-19T12:52:54;14.40;99.90
19449;DHT22;9863;49.404;8.246;2023-03-19T12:55:54;14.40;99.90
19449;DHT22;9863;49.404;8.246;2023-03-19T12:58:35;14.30;99.90
19449;DHT22;9863;49.404;8.246;2023-03-19T13:01:22;14.00;99.90
19449;DHT22;9863;49.404;8.246;2023-03-19T13:04:02;12.50;99.90
19449;DHT22;9863;49.404;8.246;2023-03-19T13:07:10;13.90;99.90
19449;DHT22;9863;49.404;8.246;2023-03-19T13:09:49;13.80;99.90
19449;DHT22;9863;49.404;8.246;2023-03-19T13:12:25;13.80;99.90
19449;DHT22;9863;49.404;8.246;2023-03-19T13:23:41;13.80;99.90
19449;DHT22;9863;49.404;8.246;2023-03-19T13:26:10;13.80;99.90
19449;DHT22;9863;49.404;8.246;2023-03-19T13:29:06;13.80;99.90
19449;DHT22;9863;49.404;8.246;2023-03-19T13:31:36;13.70;99.90
19449;DHT22;9863;49.404;8.246;2023-03-19T13:34:16;13.50;99.90
19449;DHT22;9863;49.404;8.246;2023-03-19T13:37:17;13.20;99.90
19449;DHT22;9863;49.404;8.246;2023-03-19T13:39:50;13.10;99.90
19449;DHT22;9863;49.404;8.246;2023-03-19T13:42:37;13.10;99.90
19449;DHT22;9863;49.404;8.246;2023-03-19T13:45:36;13.10;99.90
19449;DHT22;9863;49.404;8.246;2023-03-19T13:51:24;13.20;99.90
19449;DHT22;9863;49.404;8.246;2023-03-19T13:54:17;13.50;99.90
19449;DHT22;9863;49.404;8.246;2023-03-19T13:59:46;13.80;99.90
19449;DHT22;9863;49.404;8.246;2023-03-19T14:05:01;14.10;99.90
19449;DHT22;9863;49.404;8.246;2023-03-19T14:07:58;14.40;99.90
19449;DHT22;9863;49.404;8.246;2023-03-19T14:10:27;14.40;99.90
19449;DHT22;9863;49.404;8.246;2023-03-19T14:13:06;14.40;99.90
19449;DHT22;9863;49.404;8.246;2023-03-19T14:15:38;14.40;99.90
19449;DHT22;9863;49.404;8.246;2023-03-19T14:18:11;14.40;99.90
19449;DHT22;9863;49.404;8.246;2023-03-19T14:23:26;14.50;99.90
19449;DHT22;9863;49.404;8.246;2023-03-19T14:26:18;14.90;99.90
19449;DHT22;9863;49.404;8.246;2023-03-19T14:29:04;15.90;99.90
19449;DHT22;9863;49.404;8.246;2023-03-19T14:31:56;16.00;99.90
19449;DHT22;9863;49.404;8.246;2023-03-19T14:34:41;16.00;99.90
19449;DHT22;9863;49.404;8.246;2023-03-19T14:37:21;16.70;99.90
19449;DHT22;9863;49.404;8.246;2023-03-19T14:51:49;16.70;99.90
19449;DHT22;9863;49.404;8.246;2023-03-19T14:55:07;16.30;99.90
19449;DHT22;9863;49.404;8.246;2023-03-19T14:57:31;16.30;99.90
19449;DHT22;9863;49.404;8.246;2023-03-19T15:00:04;16.10;99.90
19449;DHT22;9863;49.404;8.246;2023-03-19T15:02:51;15.90;99.90
19449;DHT22;9863;49.404;8.246;2023-03-19T15:05:26;15.90;99.90
19449;DHT22;9863;49.404;8.246;2023-03-19T15:08:05;15.70;99.90
19449;DHT22;9863;49.404;8.246;2023-03-19T15:19:34;15.90;99.90
19449;DHT22;9863;49.404;8.246;2023-03-19T15:22:14;15.70;99.90
19449;DHT22;9863;49.404;8.246;2023-03-19T15:24:46;15.50;99.90
19449;DHT22;9863;49.404;8.246;2023-03-19T15:27:21;15.40;99.90
19449;DHT22;9863;49.404;8.246;2023-03-19T15:29:50;15.80;99.90
19449;DHT22;9863;49.404;8.246;2023-03-19T15:32:39;15.60;99.90
19449;DHT22;9863;49.404;8.246;2023-03-19T15:35:36;15.50;99.90
19449;DHT22;9863;49.404;8.246;2023-03-19T15:38:09;15.40;99.90
19449;DHT22;9863;49.404;8.246;2023-03-19T15:40:37;15.40;99.90
19449;DHT22;9863;49.404;8.246;2023-03-19T15:43:08;15.30;99.90
19449;DHT22;9863;49.404;8.246;2023-03-19T15:45:38;15.20;99.90
19449;DHT22;9863;49.404;8.246;2023-03-19T15:48:19;15.10;99.90
19449;DHT22;9863;49.404;8.246;2023-03-19T15:50:50;15.10;99.90
19449;DHT22;9863;49.404;8.246;2023-03-19T15:53:25;15.30;99.90
19449;DHT22;9863;49.404;8.246;2023-03-19T15:58:28;15.10;99.90
19449;DHT22;9863;49.404;8.246;2023-03-19T16:00:58;15.00;99.90
19449;DHT22;9863;49.404;8.246;2023-03-19T16:03:44;15.00;99.90
19449;DHT22;9863;49.404;8.246;2023-03-19T16:06:29;14.90;99.90
19449;DHT22;9863;49.404;8.246;2023-03-19T16:11:56;14.70;99.90
19449;DHT22;9863;49.404;8.246;2023-03-19T16:14:41;14.70;99.90
19449;DHT22;9863;49.404;8.246;2023-03-19T16:17:14;14.60;99.90
19449;DHT22;9863;49.404;8.246;2023-03-19T16:19:53;14.60;99.90
19449;DHT22;9863;49.404;8.246;2023-03-19T16:22:33;14.60;99.90
19449;DHT22;9863;49.404;8.246;2023-03-19T16:25:00;14.60;99.90
19449;DHT22;9863;49.404;8.246;2023-03-19T16:27:39;14.40;99.90
19449;DHT22;9863;49.404;8.246;2023-03-19T16:30:19;14.30;99.90
19449;DHT22;9863;49.404;8.246;2023-03-19T16:33:00;14.50;99.90
19449;DHT22;9863;49.404;8.246;2023-03-19T16:35:32;14.50;99.90
19449;DHT22;9863;49.404;8.246;2023-03-19T16:38:23;14.70;99.90
19449;DHT22;9863;49.404;8.246;2023-03-19T16:41:23;14.40;99.90
19449;DHT22;9863;49.404;8.246;2023-03-19T16:44:11;14.20;99.90
19449;DHT22;9863;49.404;8.246;2023-03-19T16:46:47;14.20;99.90
19449;DHT22;9863;49.404;8.246;2023-03-19T16:54:14;13.50;99.90
19449;DHT22;9863;49.404;8.246;2023-03-19T16:59:22;13.60;99.90
19449;DHT22;9863;49.404;8.246;2023-03-19T17:01:53;13.60;99.90
19449;DHT22;9863;49.404;8.246;2023-03-19T17:04:24;13.80;99.90
19449;DHT22;9863;49.404;8.246;2023-03-19T17:06:55;13.80;99.90
19449;DHT22;9863;49.404;8.246;2023-03-19T17:09:22;13.90;99.90
19449;DHT22;9863;49.404;8.246;2023-03-19T17:11:49;14.00;99.90
19449;DHT22;9863;49.404;8.246;2023-03-19T17:14:20;14.00;99.90
19449;DHT22;9863;49.404;8.246;2023-03-19T17:16:48;13.70;99.90
19449;DHT22;9863;49.404;8.246;2023-03-19T17:19:31;13.70;99.90
19449;DHT22;9863;49.404;8.246;2023-03-19T17:22:00;13.60;99.90
19449;DHT22;9863;49.404;8.246;2023-03-19T17:24:32;13.50;99.90
19449;DHT22;9863;49.404;8.246;2023-03-19T17:27:02;13.40;99.90
19449;DHT22;9863;49.404;8.246;2023-03-19T17:32:02;13.40;99.90
19449;DHT22;9863;49.404;8.246;2023-03-19T17:34:32;13.40;99.90
19449;DHT22;9863;49.404;8.246;2023-03-19T17:37:02;13.10;99.90
19449;DHT22;9863;49.404;8.246;2023-03-19T17:39:32;13.20;99.90
19449;DHT22;9863;49.404;8.246;2023-03-19T17:42:19;13.00;99.90
19449;DHT22;9863;49.404;8.246;2023-03-19T17:44:48;13.00;99.90
19449;DHT22;9863;49.404;8.246;2023-03-19T17:47:16;12.90;99.90
19449;DHT22;9863;49.404;8.246;2023-03-19T17:49:51;12.80;99.90
19449;DHT22;9863;49.404;8.246;2023-03-19T17:57:21;12.60;99.90
19449;DHT22;9863;49.404;8.246;2023-03-19T18:04:49;12.40;99.90
19449;DHT22;9863;49.404;8.246;2023-03-19T18:07:23;12.20;99.90
19449;DHT22;9863;49.404;8.246;2023-03-19T18:09:50;12.20;99.90
19449;DHT22;9863;49.404;8.246;2023-03-19T18:12:17;12.10;99.90
19449;DHT22;9863;49.404;8.246;2023-03-19T18:14:45;12.10;99.90
19449;DHT22;9863;49.404;8.246;2023-03-19T18:17:18;12.00;99.90
19449;DHT22;9863;49.404;8.246;2023-03-19T18:19:52;12.00;99.90
19449;DHT22;9863;49.404;8.246;2023-03-19T18:22:23;11.80;99.90
19449;DHT22;9863;49.404;8.246;2023-03-19T18:30:38;11.70;99.90
19449;DHT22;9863;49.404;8.246;2023-03-19T18:33:13;11.50;99.90
19449;DHT22;9863;49.404;8.246;2023-03-19T18:35:43;11.40;99.90
19449;DHT22;9863;49.404;8.246;2023-03-19T18:38:18;11.40;99.90
19449;DHT22;9863;49.404;8.246;2023-03-19T18:40:48;11.30;99.90
19449;DHT22;9863;49.404;8.246;2023-03-19T18:43:31;11.10;99.90
19449;DHT22;9863;49.404;8.246;2023-03-19T18:46:07;11.10;99.90
19449;DHT22;9863;49.404;8.246;2023-03-19T18:48:36;11.10;99.90
19449;DHT22;9863;49.404;8.246;2023-03-19T18:51:03;11.00;99.90
19449;DHT22;9863;49.404;8.246;2023-03-19T18:53:34;11.00;99.90
19449;DHT22;9863;49.404;8.246;2023-03-19T18:56:01;11.00;99.90
19449;DHT22;9863;49.404;8.246;2023-03-19T18:58:33;10.90;99.90
19449;DHT22;9863;49.404;8.246;2023-03-19T19:01:00;10.90;99.90
19449;DHT22;9863;49.404;8.246;2023-03-19T19:03:30;10.90;99.90
19449;DHT22;9863;49.404;8.246;2023-03-19T19:05:59;10.80;99.90
19449;DHT22;9863;49.404;8.246;2023-03-19T19:08:28;10.70;99.90
19449;DHT22;9863;49.404;8.246;2023-03-19T19:14:19;10.40;99.90
19449;DHT22;9863;49.404;8.246;2023-03-19T19:16:48;10.40;99.90
19449;DHT22;9863;49.404;8.246;2023-03-19T19:19:24;10.30;99.90
19449;DHT22;9863;49.404;8.246;2023-03-19T19:21:53;10.10;99.90
19449;DHT22;9863;49.404;8.246;2023-03-19T19:24:20;10.00;99.90
19449;DHT22;9863;49.404;8.246;2023-03-19T19:26:50;9.90;99.90
19449;DHT22;9863;49.404;8.246;2023-03-19T19:29:25;9.90;99.90
19449;DHT22;9863;49.404;8.246;2023-03-19T19:31:56;9.90;99.90
19449;DHT22;9863;49.404;8.246;2023-03-19T19:34:25;9.80;99.90
19449;DHT22;9863;49.404;8.246;2023-03-19T19:36:53;9.70;99.90
19449;DHT22;9863;49.404;8.246;2023-03-19T19:39:24;9.70;99.90